Time;durP1;ratioP1;P1;durP2;ratioP2;P2;SDS_P1;SDS_P2;PMS_P1;PMS_P2;Temp;Humidity;BMP_temperature;BMP_pressure;BME280_temperature;BME280_humidity;BME280_pressure;Samples;Min_cycle;Max_cycle;Signal;HPM_P1;HPM_P2
2022/08/01 00:01:05;;;;;;;4.55;2.00;;;23.10;68.80;;;;;;4495662;31;20081;-66
2022/08/01 00:03:31;;;;;;;4.10;1.50;;;23.10;68.80;;;;;;4510199;31;20158;-66
2022/08/01 00:05:57;;;;;;;4.55;1.63;;;23.10;68.80;;;;;;4510405;31;20057;-66
2022/08/01 00:08:23;;;;;;;4.35;1.58;;;23.10;68.80;;;;;;4509888;31;20079;-66
2022/08/01 00:10:48;;;;;;;3.28;1.30;;;23.10;68.80;;;;;;4510036;31;20224;-66
2022/08/01 00:13:14;;;;;;;3.90;1.45;;;23.10;68.80;;;;;;4510130;31;20053;-66
2022/08/01 00:15:40;;;;;;;4.68;1.40;;;23.10;68.70;;;;;;4509812;31;20057;-66
2022/08/01 00:18:06;;;;;;;2.60;1.33;;;23.10;68.70;;;;;;4509661;31;20073;-66
2022/08/01 00:20:32;;;;;;;3.88;1.60;;;23.10;68.70;;;;;;4509592;31;20100;-66
2022/08/01 00:22:57;;;;;;;4.45;1.63;;;23.10;68.70;;;;;;4509917;31;20161;-66
2022/08/01 00:25:23;;;;;;;3.08;1.50;;;23.10;68.70;;;;;;4509596;31;20402;-66
2022/08/01 00:27:49;;;;;;;4.70;1.50;;;23.10;68.60;;;;;;4509601;31;20073;-66
2022/08/01 00:30:15;;;;;;;5.05;1.38;;;23.10;68.60;;;;;;4509237;31;20494;-68
2022/08/01 00:32:42;;;;;;;4.13;1.38;;;23.10;68.60;;;;;;4509332;31;20061;-69
2022/08/01 00:35:08;;;;;;;4.53;1.50;;;23.10;68.60;;;;;;4509624;31;20104;-68
2022/08/01 00:37:34;;;;;;;3.00;1.50;;;23.10;68.60;;;;;;4509461;31;20080;-69
2022/08/01 00:40:00;;;;;;;3.95;1.30;;;23.10;68.50;;;;;;4509406;31;20582;-68
2022/08/01 00:42:26;;;;;;;2.75;1.50;;;23.10;68.50;;;;;;4509459;31;20065;-69
2022/08/01 00:44:51;;;;;;;2.78;1.25;;;23.10;68.50;;;;;;4509439;31;20104;-69
2022/08/01 00:47:17;;;;;;;3.30;1.50;;;23.10;68.50;;;;;;4509162;31;20057;-68
2022/08/01 00:49:44;;;;;;;4.38;1.73;;;23.10;68.50;;;;;;4509305;31;20209;-69
2022/08/01 00:52:10;;;;;;;3.53;1.40;;;23.10;68.50;;;;;;4509336;31;20214;-68
2022/08/01 00:54:36;;;;;;;2.40;1.40;;;23.10;68.50;;;;;;4509578;31;20092;-68
2022/08/01 00:57:03;;;;;;;2.70;1.25;;;23.10;68.40;;;;;;4509134;31;20131;-68
2022/08/01 00:59:29;;;;;;;4.32;1.42;;;23.00;68.40;;;;;;4508992;31;20085;-69
2022/08/01 01:01:55;;;;;;;4.60;1.35;;;23.00;68.40;;;;;;4494985;31;20073;-68
2022/08/01 01:04:21;;;;;;;3.65;1.40;;;23.00;68.30;;;;;;4508824;31;20080;-68
2022/08/01 01:07:18;;;;;;;3.33;1.30;;;23.00;68.30;;;;;;4509075;31;20081;-69
2022/08/01 01:09:56;;;;;;;3.85;1.50;;;23.00;68.20;;;;;;4508786;31;20138;-69
2022/08/01 01:12:51;;;;;;;4.30;1.40;;;23.00;68.20;;;;;;4509292;31;20189;-69
2022/08/01 01:15:25;;;;;;;2.97;1.30;;;23.00;68.20;;;;;;4509006;31;20210;-68
2022/08/01 01:18:00;;;;;;;2.38;1.15;;;23.00;68.30;;;;;;4494690;31;20065;-68
2022/08/01 01:21:00;;;;;;;3.33;1.15;;;23.00;68.20;;;;;;4508918;31;20095;-69
2022/08/01 01:24:03;;;;;;;4.30;1.17;;;23.00;68.10;;;;;;4508742;31;20088;-68
2022/08/01 01:26:59;;;;;;;3.50;1.17;;;23.00;68.10;;;;;;4508873;31;20418;-69
2022/08/01 01:29:27;;;;;;;2.20;1.05;;;23.00;68.10;;;;;;4509056;31;20220;-68
2022/08/01 01:32:03;;;;;;;3.58;1.27;;;23.00;68.20;;;;;;4508771;31;20092;-69
2022/08/01 01:34:32;;;;;;;1.90;0.93;;;23.00;68.20;;;;;;4508999;31;20069;-68
2022/08/01 01:36:59;;;;;;;3.15;1.20;;;23.00;68.10;;;;;;4508298;31;20080;-68
2022/08/01 01:39:29;;;;;;;1.67;1.20;;;23.00;68.10;;;;;;4508426;31;20096;-68
2022/08/01 01:41:56;;;;;;;3.42;1.30;;;23.00;68.00;;;;;;4508817;31;20493;-68
2022/08/01 01:44:22;;;;;;;3.03;1.08;;;23.00;68.10;;;;;;4508762;31;20091;-66
2022/08/01 01:46:50;;;;;;;3.00;0.95;;;22.90;68.00;;;;;;4508462;31;20069;-66
2022/08/01 01:49:18;;;;;;;3.30;1.27;;;23.00;68.00;;;;;;4508312;31;20091;-66
2022/08/01 01:51:47;;;;;;;2.05;1.00;;;23.00;68.00;;;;;;4508381;31;20088;-66
2022/08/01 01:54:13;;;;;;;2.78;1.15;;;23.00;68.00;;;;;;4508350;31;20132;-66
2022/08/01 01:56:48;;;;;;;2.60;1.10;;;23.00;68.00;;;;;;4494055;31;20080;-68
2022/08/01 01:59:19;;;;;;;2.50;1.17;;;23.00;68.00;;;;;;4508360;31;20091;-68
2022/08/01 02:01:47;;;;;;;1.40;0.88;;;22.90;67.90;;;;;;4508367;31;20092;-70
2022/08/01 02:04:14;;;;;;;1.27;0.60;;;22.90;67.90;;;;;;4508285;31;20073;-69
2022/08/01 02:06:41;;;;;;;3.17;1.30;;;23.00;67.90;;;;;;4508033;31;20088;-68
2022/08/01 02:09:09;;;;;;;3.00;1.15;;;22.90;67.80;;;;;;4508185;31;20157;-69
2022/08/01 02:11:36;;;;;;;2.92;1.40;;;22.90;67.90;;;;;;4507835;31;20099;-69
2022/08/01 02:14:04;;;;;;;2.05;0.90;;;22.90;67.80;;;;;;4508226;31;20120;-68
2022/08/01 02:16:34;;;;;;;1.70;0.80;;;22.90;67.90;;;;;;4507745;31;20077;-69
2022/08/01 02:19:00;;;;;;;2.83;1.08;;;22.90;67.80;;;;;;4508319;31;20379;-68
2022/08/01 02:21:45;;;;;;;2.13;1.10;;;22.90;67.70;;;;;;4508047;31;20088;-69
2022/08/01 02:24:36;;;;;;;2.47;1.13;;;22.90;67.70;;;;;;4508432;31;20061;-69
2022/08/01 02:27:07;;;;;;;1.95;0.90;;;22.90;67.60;;;;;;4508024;31;20112;-69
2022/08/01 02:29:44;;;;;;;2.10;1.10;;;22.90;67.70;;;;;;4507801;31;20080;-69
2022/08/01 02:32:31;;;;;;;1.65;0.88;;;22.90;67.70;;;;;;4508275;31;20250;-69
2022/08/01 02:34:59;;;;;;;2.45;1.00;;;22.90;67.60;;;;;;4508040;31;20134;-68
2022/08/01 02:37:28;;;;;;;2.60;1.15;;;22.90;67.60;;;;;;4493527;31;20080;-68
2022/08/01 02:39:54;;;;;;;2.08;1.00;;;22.90;67.60;;;;;;4507694;31;20091;-69
2022/08/01 02:42:23;;;;;;;2.30;1.20;;;22.90;67.60;;;;;;4507567;31;20072;-68
2022/08/01 02:44:51;;;;;;;2.95;1.27;;;22.90;67.60;;;;;;4507793;31;20508;-66
2022/08/01 02:47:20;;;;;;;1.63;0.93;;;22.90;67.60;;;;;;4493468;31;20212;-66
2022/08/01 02:49:49;;;;;;;3.22;1.25;;;22.90;67.60;;;;;;4507316;31;20088;-67
2022/08/01 02:52:17;;;;;;;2.75;1.30;;;22.90;67.60;;;;;;4507626;31;20080;-66
2022/08/01 02:54:48;;;;;;;2.13;1.10;;;22.90;67.60;;;;;;4507453;31;20228;-66
2022/08/01 02:57:16;;;;;;;3.08;0.95;;;22.90;67.50;;;;;;4507314;31;20095;-67
2022/08/01 02:59:43;;;;;;;1.98;1.00;;;22.90;67.50;;;;;;4507646;31;20522;-68
2022/08/01 03:02:10;;;;;;;2.05;0.90;;;22.90;67.60;;;;;;4507762;31;20081;-68
2022/08/01 03:04:41;;;;;;;1.25;0.73;;;22.90;67.50;;;;;;4507718;31;20098;-69
2022/08/01 03:07:09;;;;;;;2.30;1.00;;;22.90;67.50;;;;;;4507364;31;20093;-68
2022/08/01 03:09:44;;;;;;;2.35;0.95;;;22.90;67.50;;;;;;4507638;31;20069;-68
2022/08/01 03:12:17;;;;;;;2.50;0.90;;;22.90;67.50;;;;;;4507868;31;20433;-68
2022/08/01 03:14:46;;;;;;;1.88;0.98;;;22.80;67.40;;;;;;4507365;31;20183;-68
2022/08/01 03:17:12;;;;;;;1.45;0.85;;;22.90;67.50;;;;;;4507537;31;20099;-69
2022/08/01 03:19:39;;;;;;;1.83;0.90;;;22.90;67.50;;;;;;4507974;31;20208;-69
2022/08/01 03:22:11;;;;;;;1.60;0.80;;;22.90;67.50;;;;;;4507542;31;20080;-68
2022/08/01 03:24:42;;;;;;;2.75;1.17;;;22.90;67.40;;;;;;4507540;31;20170;-69
2022/08/01 03:27:09;;;;;;;1.42;0.95;;;22.90;67.40;;;;;;4507635;31;20085;-68
2022/08/01 03:29:37;;;;;;;2.47;1.00;;;22.90;67.50;;;;;;4510762;31;20154;-68
2022/08/01 03:32:03;;;;;;;2.40;1.00;;;22.90;67.50;;;;;;4510729;31;20254;-69
2022/08/01 03:34:30;;;;;;;2.08;0.95;;;22.80;67.40;;;;;;4510593;31;20146;-69
2022/08/01 03:37:12;;;;;;;2.33;0.95;;;22.80;67.40;;;;;;4510130;31;20076;-69
2022/08/01 03:39:47;;;;;;;1.58;0.82;;;22.90;67.40;;;;;;4495696;31;20088;-68
2022/08/01 03:42:18;;;;;;;3.08;1.38;;;22.80;67.40;;;;;;4510569;31;20474;-68
2022/08/01 03:44:52;;;;;;;2.65;1.15;;;22.80;67.30;;;;;;4510464;31;20484;-68
2022/08/01 03:47:25;;;;;;;2.55;0.88;;;22.80;67.30;;;;;;4496030;31;20165;-71
2022/08/01 03:49:52;;;;;;;2.03;0.90;;;22.80;67.30;;;;;;4510352;31;20073;-68
2022/08/01 03:52:20;;;;;;;2.67;1.00;;;22.80;67.30;;;;;;4510472;31;20098;-68
2022/08/01 03:54:53;;;;;;;2.22;0.90;;;22.80;67.30;;;;;;4510201;31;20077;-68
2022/08/01 03:57:20;;;;;;;1.63;1.00;;;22.80;67.30;;;;;;4495621;31;20096;-68
2022/08/01 03:59:46;;;;;;;3.15;0.82;;;22.80;67.30;;;;;;4509801;31;20336;-68
2022/08/01 04:02:14;;;;;;;2.88;0.98;;;22.80;67.20;;;;;;4495780;31;20132;-68
2022/08/01 04:04:41;;;;;;;0.93;0.80;;;22.80;67.20;;;;;;4510031;31;20157;-68
2022/08/01 04:07:28;;;;;;;3.33;1.02;;;22.80;67.20;;;;;;4510232;31;20068;-68
2022/08/01 04:09:54;;;;;;;1.20;0.80;;;22.80;67.20;;;;;;4509782;31;20087;-68
2022/08/01 04:12:20;;;;;;;2.33;0.90;;;22.80;67.20;;;;;;4509906;31;20612;-68
2022/08/01 04:14:48;;;;;;;3.13;0.90;;;22.80;67.20;;;;;;4509842;31;20449;-68
2022/08/01 04:17:15;;;;;;;1.90;0.85;;;22.80;67.20;;;;;;4509754;31;20073;-68
2022/08/01 04:19:42;;;;;;;3.00;0.90;;;22.80;67.20;;;;;;4509764;31;20092;-68
2022/08/01 04:22:09;;;;;;;2.55;0.95;;;22.80;67.20;;;;;;4509506;31;20258;-68
2022/08/01 04:24:36;;;;;;;1.95;0.80;;;22.80;67.20;;;;;;4509615;31;20206;-68
2022/08/01 04:27:09;;;;;;;2.22;1.10;;;22.80;67.20;;;;;;4509432;31;20081;-68
2022/08/01 04:29:37;;;;;;;1.83;0.87;;;22.80;67.20;;;;;;4509623;31;20206;-68
2022/08/01 04:32:04;;;;;;;1.95;0.75;;;22.80;67.10;;;;;;4495563;31;20603;-68
2022/08/01 04:34:32;;;;;;;2.35;1.10;;;22.80;67.20;;;;;;4509637;31;20097;-69
2022/08/01 04:37:00;;;;;;;2.17;0.80;;;22.80;67.10;;;;;;4509597;31;20108;-68
2022/08/01 04:39:30;;;;;;;2.35;0.88;;;22.80;67.10;;;;;;4508995;31;20092;-68
2022/08/01 04:41:59;;;;;;;1.88;0.85;;;22.80;67.10;;;;;;4509675;31;20061;-68
2022/08/01 04:44:27;;;;;;;2.55;0.75;;;22.80;67.10;;;;;;4509701;31;20588;-68
2022/08/01 04:46:54;;;;;;;1.38;0.75;;;22.80;67.10;;;;;;4509470;31;20127;-69
2022/08/01 04:49:21;;;;;;;1.58;0.70;;;22.80;67.10;;;;;;4509352;31;20151;-68
2022/08/01 04:51:57;;;;;;;3.28;1.08;;;22.80;67.00;;;;;;4509354;31;20073;-69
2022/08/01 04:54:28;;;;;;;1.48;0.57;;;22.80;67.00;;;;;;4495246;31;20094;-68
2022/08/01 04:56:59;;;;;;;2.35;0.80;;;22.80;67.00;;;;;;4509574;31;20209;-69
2022/08/01 04:59:41;;;;;;;1.88;0.80;;;22.80;67.00;;;;;;4509635;31;20061;-69
2022/08/01 05:02:18;;;;;;;1.20;0.75;;;22.80;67.00;;;;;;4509617;31;20158;-68
2022/08/01 05:04:45;;;;;;;1.67;0.90;;;22.80;67.00;;;;;;4509194;31;20068;-68
2022/08/01 05:07:12;;;;;;;1.48;0.70;;;22.80;67.00;;;;;;4509131;31;20410;-68
2022/08/01 05:09:45;;;;;;;2.10;0.80;;;22.80;67.00;;;;;;4509078;31;20210;-68
2022/08/01 05:12:11;;;;;;;2.25;1.00;;;22.80;67.00;;;;;;4509173;31;20077;-68
2022/08/01 05:14:37;;;;;;;2.78;1.00;;;22.70;66.90;;;;;;4509128;31;20080;-68
2022/08/01 05:17:06;;;;;;;1.95;0.82;;;22.70;66.90;;;;;;4508653;31;20650;-68
2022/08/01 05:19:33;;;;;;;1.55;0.88;;;22.80;66.90;;;;;;4509122;31;20626;-68
2022/08/01 05:22:01;;;;;;;2.15;0.93;;;22.70;66.80;;;;;;4508934;31;20100;-68
2022/08/01 05:24:30;;;;;;;1.75;0.73;;;22.70;66.80;;;;;;4508608;31;20061;-68
2022/08/01 05:26:56;;;;;;;3.08;1.08;;;22.70;66.80;;;;;;4509033;31;20308;-69
2022/08/01 05:29:22;;;;;;;2.97;0.90;;;22.80;66.80;;;;;;4494272;31;20077;-68
2022/08/01 05:31:48;;;;;;;1.80;0.80;;;22.80;66.80;;;;;;4494520;31;20211;-68
2022/08/01 05:34:14;;;;;;;2.33;0.80;;;22.70;66.70;;;;;;4508436;31;20422;-68
2022/08/01 05:36:40;;;;;;;2.85;0.93;;;22.70;66.70;;;;;;4508430;31;20215;-68
2022/08/01 05:39:06;;;;;;;3.08;0.80;;;22.70;66.70;;;;;;4508381;31;20073;-68
2022/08/01 05:41:32;;;;;;;2.30;0.95;;;22.70;66.70;;;;;;4508193;31;20105;-68
2022/08/01 05:43:58;;;;;;;3.47;1.10;;;22.80;66.70;;;;;;4508795;31;20363;-68
2022/08/01 05:46:24;;;;;;;1.20;0.80;;;22.70;66.70;;;;;;4493935;31;20392;-68
2022/08/01 05:48:49;;;;;;;3.30;1.10;;;22.70;66.70;;;;;;4508777;31;20081;-69
2022/08/01 05:51:15;;;;;;;2.22;0.90;;;22.70;66.60;;;;;;4507771;31;20100;-68
2022/08/01 05:53:41;;;;;;;2.92;1.10;;;22.70;66.60;;;;;;4493847;31;20068;-68
2022/08/01 05:56:08;;;;;;;1.98;0.95;;;22.70;66.60;;;;;;4508456;31;20413;-68
2022/08/01 05:58:33;;;;;;;2.00;0.90;;;22.70;66.60;;;;;;4508260;31;20077;-68
2022/08/01 06:00:59;;;;;;;1.73;0.80;;;22.70;66.60;;;;;;4508573;31;20476;-68
2022/08/01 06:03:25;;;;;;;1.67;0.70;;;22.70;66.60;;;;;;4508292;31;20088;-68
2022/08/01 06:05:53;;;;;;;2.78;0.90;;;22.70;66.60;;;;;;4508483;31;20136;-69
2022/08/01 06:08:19;;;;;;;1.98;0.82;;;22.70;66.60;;;;;;4508205;31;20492;-68
2022/08/01 06:10:45;;;;;;;2.58;0.95;;;22.70;66.60;;;;;;4508173;31;20073;-68
2022/08/01 06:13:11;;;;;;;1.90;0.90;;;22.70;66.60;;;;;;4508203;31;20518;-68
2022/08/01 06:15:37;;;;;;;2.65;0.90;;;22.70;66.60;;;;;;4508089;31;20082;-68
2022/08/01 06:18:03;;;;;;;2.10;0.77;;;22.70;66.60;;;;;;4493779;31;20117;-68
2022/08/01 06:20:29;;;;;;;2.05;0.70;;;22.70;66.70;;;;;;4507972;31;20217;-68
2022/08/01 06:22:55;;;;;;;1.92;0.70;;;22.70;66.60;;;;;;4508067;31;20088;-69
2022/08/01 06:25:21;;;;;;;2.72;0.85;;;22.70;66.60;;;;;;4480407;31;20073;-68
2022/08/01 06:27:47;;;;;;;1.90;1.00;;;22.70;66.60;;;;;;4508008;31;20528;-68
2022/08/01 06:30:13;;;;;;;2.88;0.68;;;22.70;66.60;;;;;;4508017;31;20087;-68
2022/08/01 06:32:39;;;;;;;3.75;1.00;;;22.70;66.60;;;;;;4508201;31;20081;-68
2022/08/01 06:35:05;;;;;;;3.30;1.33;;;22.70;66.60;;;;;;4507640;31;20073;-69
2022/08/01 06:37:31;;;;;;;1.98;0.80;;;22.70;66.60;;;;;;4507872;31;20647;-68
2022/08/01 06:40:09;;;;;;;2.67;0.88;;;22.70;66.60;;;;;;4507626;31;20226;-68
2022/08/01 06:42:35;;;;;;;2.92;0.90;;;22.70;66.40;;;;;;4507868;31;20080;-68
2022/08/01 06:45:03;;;;;;;1.80;0.77;;;22.70;66.40;;;;;;4508098;31;20150;-68
2022/08/01 06:47:29;;;;;;;2.63;1.08;;;22.70;66.40;;;;;;4507815;31;20517;-68
2022/08/01 06:49:55;;;;;;;1.58;0.80;;;22.80;66.40;;;;;;4507731;31;20130;-68
2022/08/01 06:52:21;;;;;;;1.73;0.60;;;22.70;66.30;;;;;;4507780;31;20061;-70
2022/08/01 06:54:47;;;;;;;2.78;0.90;;;22.80;66.30;;;;;;4507774;31;20072;-67
2022/08/01 06:57:13;;;;;;;3.30;1.05;;;22.80;66.40;;;;;;4507602;31;20127;-67
2022/08/01 06:59:39;;;;;;;4.35;1.40;;;22.80;66.40;;;;;;4507960;31;20389;-67
2022/08/01 07:02:06;;;;;;;3.92;1.35;;;22.80;66.40;;;;;;4508957;31;20094;-68
2022/08/01 07:04:33;;;;;;;6.50;1.17;;;22.90;66.30;;;;;;4510963;31;20076;-67
2022/08/01 07:06:59;;;;;;;5.78;1.45;;;22.90;66.20;;;;;;4510897;31;20080;-68
2022/08/01 07:09:25;;;;;;;3.95;1.30;;;22.90;66.10;;;;;;4510840;31;20088;-67
2022/08/01 07:11:52;;;;;;;6.03;1.75;;;22.90;66.10;;;;;;4510612;31;20214;-68
2022/08/01 07:14:18;;;;;;;7.75;1.75;;;23.00;66.10;;;;;;4510800;31;20083;-67
2022/08/01 07:16:45;;;;;;;7.28;1.80;;;23.00;66.00;;;;;;4510557;31;20089;-68
2022/08/01 07:19:11;;;;;;;6.07;1.55;;;23.00;65.80;;;;;;4510363;31;20479;-67
2022/08/01 07:21:38;;;;;;;7.47;1.55;;;23.10;65.70;;;;;;4510936;31;20087;-67
2022/08/01 07:24:05;;;;;;;10.00;1.50;;;23.10;65.60;;;;;;4510587;31;20100;-67
2022/08/01 07:26:30;;;;;;;5.05;1.40;;;23.10;65.40;;;;;;4510619;31;20434;-68
2022/08/01 07:28:56;;;;;;;11.32;2.08;;;23.10;65.30;;;;;;4510539;31;20077;-67
2022/08/01 07:31:23;;;;;;;5.43;1.60;;;23.20;65.10;;;;;;4510291;31;20120;-67
2022/08/01 07:33:49;;;;;;;10.07;1.63;;;23.10;65.00;;;;;;4510470;31;20092;-68
2022/08/01 07:36:18;;;;;;;7.10;1.60;;;23.20;64.90;;;;;;4510522;31;20120;-67
2022/08/01 07:38:45;;;;;;;10.75;1.95;;;23.20;64.70;;;;;;4510346;31;20088;-67
2022/08/01 07:41:11;;;;;;;8.45;1.73;;;23.20;64.60;;;;;;4495602;31;20084;-67
2022/08/01 07:43:37;;;;;;;8.00;1.67;;;23.20;64.40;;;;;;4510364;31;20087;-68
2022/08/01 07:46:04;;;;;;;6.85;1.60;;;23.30;64.40;;;;;;4510353;31;20594;-68
2022/08/01 07:48:30;;;;;;;8.30;1.38;;;23.30;64.20;;;;;;4510342;31;20076;-68
2022/08/01 07:50:56;;;;;;;5.90;1.50;;;23.30;64.00;;;;;;4510270;31;20166;-68
2022/08/01 07:53:22;;;;;;;12.63;2.08;;;23.30;63.90;;;;;;4510516;31;20076;-67
2022/08/01 07:55:48;;;;;;;5.97;1.83;;;23.30;63.80;;;;;;4510411;31;20284;-67
2022/08/01 07:58:16;;;;;;;7.05;1.60;;;23.40;63.70;;;;;;4509807;31;20084;-67
2022/08/01 08:00:42;;;;;;;9.05;1.58;;;23.40;63.70;;;;;;4510271;31;20213;-67
2022/08/01 08:03:08;;;;;;;7.85;1.73;;;23.40;63.60;;;;;;4509981;31;20081;-65
2022/08/01 08:05:35;;;;;;;10.32;2.08;;;23.40;63.50;;;;;;4495697;31;20151;-65
2022/08/01 08:08:13;;;;;;;9.93;1.60;;;23.40;63.30;;;;;;4510179;31;20076;-65
2022/08/01 08:10:39;;;;;;;6.97;1.75;;;23.50;63.20;;;;;;4510332;31;20073;-65
2022/08/01 08:13:05;;;;;;;8.85;1.50;;;23.50;63.20;;;;;;4509276;31;20441;-67
2022/08/01 08:15:31;;;;;;;7.25;1.60;;;23.50;63.00;;;;;;4509903;31;20199;-65
2022/08/01 08:17:57;;;;;;;8.35;2.28;;;23.50;63.00;;;;;;4495511;31;20564;-65
2022/08/01 08:20:26;;;;;;;6.00;1.73;;;23.60;62.90;;;;;;4509804;31;20268;-65
2022/08/01 08:22:53;;;;;;;6.45;1.70;;;23.60;62.90;;;;;;4509824;31;20072;-66
2022/08/01 08:25:19;;;;;;;6.35;1.63;;;23.60;62.80;;;;;;4509804;31;20130;-65
2022/08/01 08:27:46;;;;;;;6.82;1.58;;;23.60;62.80;;;;;;4509685;31;20429;-65
2022/08/01 08:30:12;;;;;;;6.15;1.25;;;23.60;62.70;;;;;;4509416;31;20080;-65
2022/08/01 08:32:38;;;;;;;5.88;1.38;;;23.60;62.60;;;;;;4509593;31;20133;-65
2022/08/01 08:35:05;;;;;;;8.50;1.52;;;23.70;62.50;;;;;;4509715;31;20178;-65
2022/08/01 08:37:32;;;;;;;5.82;1.98;;;23.70;62.50;;;;;;4509522;31;20073;-65
2022/08/01 08:39:58;;;;;;;7.40;1.80;;;23.70;62.30;;;;;;4509050;31;20072;-65
2022/08/01 08:42:24;;;;;;;7.20;1.58;;;23.70;62.20;;;;;;4509720;31;20092;-65
2022/08/01 08:44:50;;;;;;;9.10;1.95;;;23.80;62.20;;;;;;4509285;31;20076;-65
2022/08/01 08:47:18;;;;;;;8.10;1.40;;;23.80;62.00;;;;;;4509500;31;20079;-67
2022/08/01 08:49:45;;;;;;;5.97;1.52;;;23.80;61.70;;;;;;4508990;31;20541;-68
2022/08/01 08:52:11;;;;;;;11.30;2.03;;;23.80;61.50;;;;;;4509358;31;20096;-68
2022/08/01 08:54:38;;;;;;;10.23;1.70;;;23.80;61.30;;;;;;4509259;31;20505;-68
2022/08/01 08:57:04;;;;;;;8.07;1.67;;;23.80;61.10;;;;;;4508967;31;20139;-67
2022/08/01 08:59:31;;;;;;;8.15;1.95;;;23.80;60.80;;;;;;4509440;31;20085;-68
2022/08/01 09:01:58;;;;;;;6.13;1.27;;;23.80;60.50;;;;;;4509099;31;20087;-68
2022/08/01 09:04:25;;;;;;;10.00;1.65;;;23.80;60.30;;;;;;4509422;31;20175;-69
2022/08/01 09:06:51;;;;;;;7.45;1.58;;;23.80;60.10;;;;;;4508864;31;20221;-67
2022/08/01 09:09:17;;;;;;;10.55;1.90;;;23.80;60.00;;;;;;4508873;31;20080;-67
2022/08/01 09:11:43;;;;;;;9.30;1.60;;;23.80;59.60;;;;;;4509289;31;20115;-67
2022/08/01 09:14:23;;;;;;;8.38;1.45;;;23.80;59.60;;;;;;4509083;31;20205;-67
2022/08/01 09:17:08;;;;;;;9.88;1.58;;;23.80;59.20;;;;;;4509306;31;20080;-69
2022/08/01 09:19:47;;;;;;;10.48;1.98;;;23.70;59.10;;;;;;4508741;31;20100;-68
2022/08/01 09:22:17;;;;;;;4.88;1.38;;;23.70;58.90;;;;;;4509189;31;20084;-66
2022/08/01 09:25:00;;;;;;;10.90;1.50;;;23.70;58.70;;;;;;4508386;31;20123;-66
2022/08/01 09:27:27;;;;;;;10.55;2.00;;;23.70;58.20;;;;;;4508788;31;20096;-66
2022/08/01 09:29:54;;;;;;;9.90;1.77;;;23.70;59.40;;;;;;4508761;31;20087;-66
2022/08/01 09:32:23;;;;;;;7.40;1.98;;;23.70;58.30;;;;;;4508515;31;20088;-66
2022/08/01 09:34:49;;;;;;;7.47;1.60;;;23.70;58.00;;;;;;4508711;31;20131;-65
2022/08/01 09:37:17;;;;;;;7.78;1.65;;;23.70;57.90;;;;;;4508304;31;20144;-66
2022/08/01 09:39:45;;;;;;;9.20;2.00;;;23.60;57.50;;;;;;4508676;31;20210;-65
2022/08/01 09:42:25;;;;;;;8.00;1.98;;;23.60;57.10;;;;;;4508482;31;20421;-66
2022/08/01 09:44:51;;;;;;;8.05;1.55;;;23.60;56.80;;;;;;4508771;31;20087;-65
2022/08/01 09:47:20;;;;;;;6.85;1.40;;;23.60;57.00;;;;;;4508490;31;20084;-65
2022/08/01 09:49:56;;;;;;;10.85;1.95;;;23.60;56.70;;;;;;4508375;31;20099;-69
2022/08/01 09:52:25;;;;;;;7.88;1.65;;;23.60;56.40;;;;;;4508763;31;20158;-68
2022/08/01 09:54:54;;;;;;;6.28;1.42;;;23.60;56.40;;;;;;4508434;31;20540;-68
2022/08/01 09:57:21;;;;;;;7.78;1.30;;;23.60;56.20;;;;;;4508305;31;20080;-69
2022/08/01 09:59:51;;;;;;;8.55;2.00;;;23.50;56.20;;;;;;4508071;31;20084;-68
2022/08/01 10:02:38;;;;;;;8.63;1.50;;;23.60;56.10;;;;;;4508027;31;20217;-68
2022/08/01 10:05:06;;;;;;;6.20;1.75;;;23.60;55.80;;;;;;4508233;31;20119;-68
2022/08/01 10:07:32;;;;;;;7.47;1.42;;;23.60;55.80;;;;;;4508304;31;20060;-68
2022/08/01 10:10:13;;;;;;;13.15;2.00;;;23.60;55.60;;;;;;4507915;31;20080;-68
2022/08/01 10:12:41;;;;;;;5.85;1.63;;;23.60;55.40;;;;;;4508191;31;20083;-68
2022/08/01 10:15:09;;;;;;;9.07;1.67;;;23.50;55.40;;;;;;4508292;31;20405;-68
2022/08/01 10:17:38;;;;;;;5.47;1.60;;;23.50;55.20;;;;;;4508137;31;20402;-68
2022/08/01 10:20:05;;;;;;;6.57;1.40;;;23.50;55.00;;;;;;4507736;31;20570;-65
2022/08/01 10:22:33;;;;;;;7.53;1.40;;;23.50;54.90;;;;;;4507450;31;20521;-72
2022/08/01 10:25:03;;;;;;;7.07;1.45;;;23.50;54.70;;;;;;4508084;31;20280;-69
2022/08/01 10:27:31;;;;;;;5.35;1.20;;;23.50;54.70;;;;;;4508292;31;20095;-69
2022/08/01 10:30:07;;;;;;;10.02;1.85;;;23.50;54.70;;;;;;4508190;31;20069;-69
2022/08/01 10:32:34;;;;;;;6.20;1.50;;;23.50;54.70;;;;;;4508195;31;20135;-68
2022/08/01 10:35:01;;;;;;;5.45;1.50;;;23.50;54.70;;;;;;4507906;31;20065;-68
2022/08/01 10:37:28;;;;;;;6.55;1.55;;;23.50;54.70;;;;;;4507539;31;20510;-69
2022/08/01 10:39:57;;;;;;;5.00;1.35;;;23.50;54.70;;;;;;4507639;31;20213;-69
2022/08/01 10:42:23;;;;;;;5.68;1.27;;;23.50;54.70;;;;;;4492127;31;20157;-70
2022/08/01 10:44:50;;;;;;;6.38;1.30;;;23.50;54.60;;;;;;4507692;31;20080;-69
2022/08/01 10:47:40;;;;;;;9.18;1.40;;;23.50;54.60;;;;;;4493452;31;20077;-67
2022/08/01 10:50:16;;;;;;;5.40;1.13;;;23.50;54.60;;;;;;4507944;31;20076;-68
2022/08/01 10:52:41;;;;;;;6.93;1.50;;;23.50;54.50;;;;;;4508189;31;20091;-68
2022/08/01 10:55:11;;;;;;;4.53;1.33;;;23.50;54.50;;;;;;4506896;31;20072;-69
2022/08/01 10:57:45;;;;;;;6.70;1.58;;;23.50;54.30;;;;;;4507537;31;20077;-68
2022/08/01 11:00:19;;;;;;;7.55;1.50;;;23.50;53.90;;;;;;4507607;31;20099;-68
2022/08/01 11:03:00;;;;;;;7.60;1.35;;;23.50;53.90;;;;;;4507874;31;20399;-67
2022/08/01 11:05:28;;;;;;;5.50;1.30;;;23.50;53.70;;;;;;4507689;31;20445;-68
2022/08/01 11:07:54;;;;;;;5.28;1.35;;;23.50;53.80;;;;;;4507285;31;20128;-69
2022/08/01 11:10:40;;;;;;;6.78;1.40;;;23.50;53.70;;;;;;4493378;31;20122;-68
2022/08/01 11:13:11;;;;;;;10.10;1.33;;;23.50;53.70;;;;;;4507589;31;20064;-69
2022/08/01 11:15:38;;;;;;;5.80;0.98;;;23.50;53.80;;;;;;4507627;31;20513;-68
2022/08/01 11:18:27;;;;;;;6.20;1.15;;;23.50;53.70;;;;;;4492871;31;20119;-68
2022/08/01 11:21:01;;;;;;;7.43;1.10;;;23.50;53.50;;;;;;4507327;31;20092;-68
2022/08/01 11:23:46;;;;;;;9.48;1.65;;;23.50;53.50;;;;;;4507465;31;20150;-68
2022/08/01 11:26:13;;;;;;;5.22;1.20;;;23.50;53.30;;;;;;4507304;31;20150;-68
2022/08/01 11:28:39;;;;;;;7.63;1.42;;;23.40;53.10;;;;;;4507393;31;20494;-69
2022/08/01 11:31:08;;;;;;;6.55;1.60;;;23.40;52.90;;;;;;4493353;31;20226;-69
2022/08/01 11:33:44;;;;;;;7.30;1.20;;;23.40;52.90;;;;;;4507578;31;20200;-68
2022/08/01 11:36:10;;;;;;;5.43;1.30;;;23.40;52.70;;;;;;4507591;31;20393;-68
2022/08/01 11:38:38;;;;;;;5.93;1.58;;;23.40;52.70;;;;;;4507560;31;20583;-69
2022/08/01 11:41:24;;;;;;;7.20;1.80;;;23.50;52.80;;;;;;4506482;31;20563;-69
2022/08/01 11:44:27;;;;;;;6.18;1.17;;;23.40;52.30;;;;;;4507188;31;20250;-68
2022/08/01 11:46:59;;;;;;;7.50;1.35;;;23.40;52.30;;;;;;4507493;31;20203;-68
2022/08/01 11:49:25;;;;;;;6.05;1.15;;;23.40;52.30;;;;;;4508639;31;20117;-68
2022/08/01 11:52:03;;;;;;;4.22;1.10;;;23.40;52.40;;;;;;4510261;31;20080;-68
2022/08/01 11:54:31;;;;;;;7.72;1.63;;;23.40;52.30;;;;;;4510265;31;20080;-68
2022/08/01 11:57:04;;;;;;;6.40;1.10;;;23.40;52.30;;;;;;4510140;31;20518;-68
2022/08/01 11:59:40;;;;;;;5.85;1.20;;;23.40;52.20;;;;;;4510264;31;20076;-68
2022/08/01 12:02:19;;;;;;;7.25;1.38;;;23.40;52.20;;;;;;4510210;31;20115;-68
2022/08/01 12:04:46;;;;;;;5.78;1.17;;;23.40;52.10;;;;;;4509769;31;20124;-68
2022/08/01 12:07:14;;;;;;;5.65;1.15;;;23.40;52.00;;;;;;4510049;31;20247;-66
2022/08/01 12:09:39;;;;;;;7.07;1.42;;;23.40;51.80;;;;;;4509989;31;20069;-66
2022/08/01 12:12:05;;;;;;;5.75;1.52;;;23.40;51.70;;;;;;4509939;31;20252;-66
2022/08/01 12:14:31;;;;;;;5.90;1.50;;;23.40;51.70;;;;;;4509885;31;20068;-66
2022/08/01 12:16:57;;;;;;;7.13;1.67;;;23.40;51.60;;;;;;4509528;31;20204;-66
2022/08/01 12:19:24;;;;;;;5.68;1.40;;;23.40;51.60;;;;;;4509730;31;20277;-66
2022/08/01 12:22:13;;;;;;;7.47;1.63;;;23.40;51.80;;;;;;4509969;31;20088;-66
2022/08/01 12:24:41;;;;;;;6.03;1.65;;;23.40;51.70;;;;;;4509811;31;20209;-66
2022/08/01 12:27:09;;;;;;;6.88;1.30;;;23.50;51.70;;;;;;4509967;31;20072;-66
2022/08/01 12:29:36;;;;;;;4.65;1.13;;;23.40;51.60;;;;;;4508901;31;20099;-66
2022/08/01 12:32:03;;;;;;;4.22;1.02;;;23.40;51.50;;;;;;4509702;31;20073;-66
2022/08/01 12:34:30;;;;;;;7.55;1.02;;;23.40;51.40;;;;;;4495022;31;20085;-65
2022/08/01 12:36:58;;;;;;;6.53;1.25;;;23.50;51.30;;;;;;4509260;31;20084;-67
2022/08/01 12:39:32;;;;;;;6.32;1.38;;;23.50;51.30;;;;;;4509270;31;20089;-66
2022/08/01 12:41:59;;;;;;;7.05;1.83;;;23.50;51.10;;;;;;4509483;31;20092;-66
2022/08/01 12:44:30;;;;;;;6.88;1.23;;;23.40;51.10;;;;;;4509388;31;20573;-66
2022/08/01 12:46:56;;;;;;;5.75;1.20;;;23.50;51.00;;;;;;4509377;31;20174;-67
2022/08/01 12:49:22;;;;;;;8.90;1.10;;;23.50;51.00;;;;;;4509067;31;20077;-66
2022/08/01 12:51:49;;;;;;;4.95;1.02;;;23.50;51.00;;;;;;4508912;31;20080;-66
2022/08/01 12:54:15;;;;;;;7.47;1.38;;;23.50;51.00;;;;;;4509274;31;20528;-66
2022/08/01 12:56:41;;;;;;;8.13;1.58;;;23.40;51.00;;;;;;4509382;31;20073;-64